createdAt,value
2022-11-30T00:00:07.374Z,0
2022-11-30T00:03:08.181Z,0
2022-11-30T00:06:07.370Z,0
2022-11-30T00:09:07.330Z,0
2022-11-30T00:12:07.332Z,0
2022-11-30T00:15:07.326Z,0
2022-11-30T00:18:07.304Z,0
2022-11-30T00:21:07.297Z,0
2022-11-30T00:24:07.322Z,0
2022-11-30T00:27:07.332Z,0
2022-11-30T00:30:07.383Z,0
2022-11-30T00:33:07.397Z,0
2022-11-30T00:36:07.389Z,0
2022-11-30T00:39:07.402Z,0
2022-11-30T00:42:07.404Z,0
2022-11-30T00:45:07.357Z,0
2022-11-30T00:48:07.352Z,0
2022-11-30T00:51:07.307Z,0
2022-11-30T00:54:07.355Z,0
2022-11-30T00:57:07.373Z,0
2022-11-30T01:00:07.519Z,0
2022-11-30T01:03:07.290Z,0
2022-11-30T01:06:07.425Z,0
2022-11-30T01:09:07.298Z,0
2022-11-30T01:12:07.345Z,0
2022-11-30T01:15:07.471Z,0
2022-11-30T01:18:07.312Z,0
2022-11-30T01:21:07.408Z,0
2022-11-30T01:24:07.379Z,0
2022-11-30T01:27:07.317Z,0
2022-11-30T01:30:07.374Z,0
2022-11-30T01:33:07.380Z,0
2022-11-30T01:36:07.463Z,0
2022-11-30T01:39:07.404Z,0
2022-11-30T01:42:07.302Z,0
2022-11-30T01:45:07.433Z,0
2022-11-30T01:48:07.362Z,0
2022-11-30T01:51:07.316Z,0
2022-11-30T01:54:07.320Z,0
2022-11-30T01:57:07.301Z,0
2022-11-30T02:00:07.426Z,0
2022-11-30T02:03:07.348Z,0
2022-11-30T02:06:07.360Z,0
2022-11-30T02:09:07.356Z,0
2022-11-30T02:12:07.346Z,0
2022-11-30T02:15:07.499Z,0
2022-11-30T02:18:07.316Z,0
2022-11-30T02:21:07.341Z,0
2022-11-30T02:24:07.796Z,0
2022-11-30T02:27:07.638Z,0
2022-11-30T02:30:07.361Z,0
2022-11-30T02:33:07.309Z,0
2022-11-30T02:36:07.380Z,0
2022-11-30T02:39:07.330Z,0
2022-11-30T02:42:07.306Z,0
2022-11-30T02:45:07.345Z,0
2022-11-30T02:48:07.385Z,0
2022-11-30T02:51:07.323Z,0
2022-11-30T02:54:07.314Z,0
2022-11-30T02:57:07.291Z,0
2022-11-30T03:00:07.491Z,0
2022-11-30T03:03:07.644Z,0
2022-11-30T03:06:07.378Z,0
2022-11-30T03:09:07.340Z,0
2022-11-30T03:12:07.388Z,0
2022-11-30T03:15:07.459Z,0
2022-11-30T03:18:07.362Z,0
2022-11-30T03:21:07.296Z,0
2022-11-30T03:24:07.421Z,0
2022-11-30T03:27:07.370Z,0
2022-11-30T03:30:07.371Z,0
2022-11-30T03:33:07.313Z,0
2022-11-30T03:36:07.282Z,0
2022-11-30T03:39:07.390Z,0
2022-11-30T03:42:07.366Z,0
2022-11-30T03:45:07.341Z,0
2022-11-30T03:48:07.350Z,0
2022-11-30T03:51:07.323Z,0
2022-11-30T03:54:07.326Z,0
2022-11-30T03:57:07.377Z,0
2022-11-30T04:00:07.386Z,0
2022-11-30T04:03:07.749Z,0
2022-11-30T04:06:07.341Z,0
2022-11-30T04:09:07.337Z,0
2022-11-30T04:12:07.339Z,0
2022-11-30T04:15:07.385Z,0
2022-11-30T04:18:07.302Z,0
2022-11-30T04:21:07.352Z,0
2022-11-30T04:24:07.392Z,0
2022-11-30T04:27:07.361Z,0
2022-11-30T04:30:07.385Z,0
2022-11-30T04:33:07.315Z,0
2022-11-30T04:36:07.364Z,0
2022-11-30T04:39:07.353Z,0
2022-11-30T04:42:07.337Z,0
2022-11-30T04:45:07.360Z,0
2022-11-30T04:48:07.330Z,0
2022-11-30T04:51:07.339Z,0
2022-11-30T04:54:07.321Z,0
2022-11-30T04:57:07.296Z,0
2022-11-30T05:00:07.436Z,0
2022-11-30T05:03:07.338Z,0
2022-11-30T05:06:07.401Z,0
2022-11-30T05:09:07.290Z,0
2022-11-30T05:12:07.347Z,0
2022-11-30T05:15:07.384Z,0
2022-11-30T05:18:07.342Z,0
2022-11-30T05:21:07.418Z,0
2022-11-30T05:24:07.329Z,0
2022-11-30T05:27:22.307Z,0
2022-11-30T05:30:07.346Z,0
2022-11-30T05:33:07.380Z,0
2022-11-30T05:36:17.297Z,0
2022-11-30T05:39:07.353Z,0
2022-11-30T05:42:07.390Z,0
2022-11-30T05:45:07.373Z,0
2022-11-30T05:48:07.356Z,0
2022-11-30T05:51:07.319Z,0
2022-11-30T05:54:07.368Z,0
2022-11-30T05:57:07.306Z,0
2022-11-30T06:00:07.373Z,0
2022-11-30T06:03:08.345Z,0
2022-11-30T06:06:07.320Z,0
2022-11-30T06:09:07.340Z,0
2022-11-30T06:12:07.276Z,0
2022-11-30T06:15:07.359Z,0
2022-11-30T06:18:07.373Z,0
2022-11-30T06:21:07.354Z,0
2022-11-30T06:24:07.345Z,0
2022-11-30T06:27:07.351Z,0
2022-11-30T06:30:07.381Z,0
2022-11-30T06:33:07.482Z,3
2022-11-30T06:36:07.359Z,3
2022-11-30T06:39:07.335Z,7
2022-11-30T06:42:07.356Z,10
2022-11-30T06:45:07.360Z,13
2022-11-30T06:48:07.402Z,20
2022-11-30T06:51:07.366Z,27
2022-11-30T06:54:07.396Z,33
2022-11-30T06:57:07.345Z,40
2022-11-30T07:00:07.401Z,47
2022-11-30T07:03:07.293Z,57
2022-11-30T07:06:07.505Z,73
2022-11-30T07:09:07.326Z,93
2022-11-30T07:12:07.415Z,110
2022-11-30T07:15:07.333Z,130
2022-11-30T07:18:07.457Z,153
2022-11-30T07:21:07.379Z,160
2022-11-30T07:24:07.381Z,173
2022-11-30T07:27:07.419Z,177
2022-11-30T07:30:07.448Z,190
2022-11-30T07:33:07.346Z,210
2022-11-30T07:36:07.426Z,233
2022-11-30T07:39:07.335Z,247
2022-11-30T07:42:07.446Z,263
2022-11-30T07:45:07.754Z,300
2022-11-30T07:48:07.374Z,327
2022-11-30T07:51:07.382Z,357
2022-11-30T07:54:07.470Z,380
2022-11-30T07:57:07.382Z,413
2022-11-30T08:00:07.571Z,460
2022-11-30T08:03:07.639Z,487
2022-11-30T08:06:07.624Z,493
2022-11-30T08:09:07.629Z,507
2022-11-30T08:12:07.427Z,547
2022-11-30T08:15:37.291Z,550
2022-11-30T08:18:07.418Z,553
2022-11-30T08:21:07.527Z,600
2022-11-30T08:24:07.839Z,640
2022-11-30T08:27:07.391Z,710
2022-11-30T08:30:07.364Z,713
2022-11-30T08:33:07.403Z,687
2022-11-30T08:36:08.101Z,690
2022-11-30T08:39:07.490Z,753
2022-11-30T08:42:07.480Z,767
2022-11-30T08:45:08.706Z,760
2022-11-30T08:48:07.426Z,733
2022-11-30T08:51:07.412Z,700
2022-11-30T08:54:07.451Z,673
2022-11-30T08:57:07.464Z,677
2022-11-30T09:00:07.546Z,713
2022-11-30T09:03:07.872Z,743
2022-11-30T09:06:07.436Z,780
2022-11-30T09:09:07.454Z,850
2022-11-30T09:12:07.447Z,943
2022-11-30T09:15:08.103Z,1087
2022-11-30T09:18:07.557Z,1263
2022-11-30T09:21:07.483Z,1457
2022-11-30T09:24:07.532Z,1663
2022-11-30T09:27:07.471Z,2003
2022-11-30T09:30:07.537Z,2117
2022-11-30T09:33:07.443Z,2047
2022-11-30T09:36:07.452Z,1990
2022-11-30T09:39:07.472Z,2057
2022-11-30T09:42:07.394Z,2073
2022-11-30T09:45:07.502Z,1903
2022-11-30T09:48:07.398Z,1720
2022-11-30T09:51:07.380Z,1517
2022-11-30T09:54:07.455Z,1423
2022-11-30T09:57:07.357Z,1463
2022-11-30T10:00:07.456Z,1337
2022-11-30T10:03:08.015Z,1253
2022-11-30T10:06:07.431Z,1163
2022-11-30T10:09:07.400Z,1223
2022-11-30T10:12:07.499Z,1227
2022-11-30T10:15:07.614Z,1123
2022-11-30T10:18:07.430Z,1283
2022-11-30T10:21:07.394Z,1160
2022-11-30T10:24:07.485Z,1320
2022-11-30T10:27:07.397Z,1560
2022-11-30T10:30:07.447Z,1577
2022-11-30T10:33:07.499Z,1680
2022-11-30T10:36:07.419Z,1663
2022-11-30T10:39:10.703Z,1763
2022-11-30T10:42:07.448Z,1600
2022-11-30T10:45:07.630Z,1780
2022-11-30T10:48:07.412Z,1557
2022-11-30T10:51:07.393Z,1560
2022-11-30T10:54:07.423Z,1743
2022-11-30T10:57:07.401Z,1763
2022-11-30T11:00:07.591Z,1540
2022-11-30T11:06:07.412Z,1637
2022-11-30T11:09:07.428Z,1783
2022-11-30T11:12:07.431Z,1920
2022-11-30T11:15:07.629Z,1993
2022-11-30T11:18:07.494Z,2087
2022-11-30T11:21:13.540Z,2040
2022-11-30T11:24:07.611Z,1987
2022-11-30T11:27:07.406Z,1770
2022-11-30T11:30:07.427Z,1630
2022-11-30T11:33:07.500Z,1660
2022-11-30T11:36:07.446Z,1637
2022-11-30T11:39:07.327Z,1443
2022-11-30T11:42:07.425Z,1517
2022-11-30T11:45:07.462Z,1650
2022-11-30T11:48:07.461Z,1833
2022-11-30T11:51:15.406Z,1937
2022-11-30T11:54:07.750Z,1827
2022-11-30T11:57:07.351Z,1730
2022-11-30T12:00:15.570Z,1733
2022-11-30T12:03:07.663Z,1850
2022-11-30T12:06:07.559Z,2023
2022-11-30T12:09:07.455Z,1953
2022-11-30T12:12:07.444Z,2123
2022-11-30T12:15:07.363Z,2027
2022-11-30T12:18:17.146Z,1810
2022-11-30T12:21:07.346Z,1717
2022-11-30T12:24:07.946Z,1633
2022-11-30T12:27:07.444Z,1567
2022-11-30T12:30:07.467Z,1667
2022-11-30T12:33:07.440Z,1633
2022-11-30T12:36:07.444Z,1737
2022-11-30T12:39:07.378Z,1617
2022-11-30T12:42:07.504Z,1600
2022-11-30T12:45:07.486Z,1523
2022-11-30T12:48:07.384Z,1683
2022-11-30T12:51:07.392Z,1437
2022-11-30T12:54:07.380Z,1487
2022-11-30T12:57:07.438Z,1557
2022-11-30T13:00:07.617Z,1307
2022-11-30T13:03:07.401Z,1243
2022-11-30T13:06:07.441Z,1387
2022-11-30T13:09:07.595Z,1267
2022-11-30T13:12:07.424Z,1213
2022-11-30T13:15:11.036Z,1143
2022-11-30T13:18:07.480Z,1273
2022-11-30T13:21:13.770Z,1157
2022-11-30T13:24:07.426Z,1220
2022-11-30T13:27:07.404Z,1187
2022-11-30T13:30:07.662Z,1177
2022-11-30T13:33:07.356Z,1190
2022-11-30T13:36:07.437Z,1130
2022-11-30T13:39:07.410Z,1263
2022-11-30T13:42:07.374Z,1167
2022-11-30T13:45:07.397Z,1067
2022-11-30T13:48:07.466Z,987
2022-11-30T13:51:07.377Z,933
2022-11-30T13:54:34.762Z,850
2022-11-30T13:57:07.379Z,907
2022-11-30T14:00:08.142Z,937
2022-11-30T14:03:07.370Z,897
2022-11-30T14:06:07.436Z,930
2022-11-30T14:09:07.353Z,883
2022-11-30T14:12:07.441Z,857
2022-11-30T14:15:07.361Z,770
2022-11-30T14:18:07.459Z,673
2022-11-30T14:21:07.390Z,623
2022-11-30T14:24:07.379Z,563
2022-11-30T14:27:07.478Z,533
2022-11-30T14:30:07.742Z,453
2022-11-30T14:33:07.413Z,407
2022-11-30T14:36:07.551Z,350
2022-11-30T14:39:07.332Z,303
2022-11-30T14:42:07.477Z,287
2022-11-30T14:45:07.467Z,233
2022-11-30T14:48:07.498Z,200
2022-11-30T14:51:07.380Z,187
2022-11-30T14:54:07.435Z,150
2022-11-30T14:57:07.378Z,127
2022-11-30T15:00:07.636Z,107
2022-11-30T15:03:07.371Z,93
2022-11-30T15:06:07.481Z,73
2022-11-30T15:09:07.394Z,57
2022-11-30T15:12:07.395Z,47
2022-11-30T15:15:07.364Z,37
2022-11-30T15:18:07.320Z,27
2022-11-30T15:21:07.418Z,17
2022-11-30T15:24:07.742Z,13
2022-11-30T15:27:17.314Z,10
2022-11-30T15:30:07.575Z,7
2022-11-30T15:33:07.444Z,3
2022-11-30T15:36:40.235Z,3
2022-11-30T15:39:07.394Z,3
2022-11-30T15:42:07.288Z,0
2022-11-30T15:45:07.368Z,0
2022-11-30T15:48:07.966Z,0
2022-11-30T15:51:07.343Z,0
2022-11-30T15:54:07.420Z,0
2022-11-30T15:57:15.802Z,0
2022-11-30T16:00:07.389Z,0
2022-11-30T16:03:07.551Z,0
2022-11-30T16:06:07.387Z,0
2022-11-30T16:09:07.430Z,0
2022-11-30T16:12:07.449Z,0
2022-11-30T16:15:07.396Z,0
2022-11-30T16:18:07.347Z,0
2022-11-30T16:21:07.449Z,0
2022-11-30T16:24:07.419Z,0
2022-11-30T16:27:07.463Z,0
2022-11-30T16:30:07.602Z,0
2022-11-30T16:33:07.385Z,0
2022-11-30T16:36:07.394Z,0
2022-11-30T16:39:07.386Z,0
2022-11-30T16:42:07.356Z,0
2022-11-30T16:45:07.526Z,0
2022-11-30T16:48:07.404Z,0
2022-11-30T16:51:07.385Z,0
2022-11-30T16:54:07.399Z,0
2022-11-30T16:57:07.317Z,0
2022-11-30T17:00:07.451Z,0
2022-11-30T17:03:07.393Z,0
2022-11-30T17:06:07.437Z,0
2022-11-30T17:09:07.339Z,0
2022-11-30T17:12:07.460Z,0
2022-11-30T17:15:08.079Z,0
2022-11-30T17:18:07.413Z,0
2022-11-30T17:21:07.436Z,0
2022-11-30T17:24:07.342Z,0
2022-11-30T17:27:07.322Z,0
2022-11-30T17:30:07.349Z,0
2022-11-30T17:33:07.416Z,0
2022-11-30T17:36:07.351Z,0
2022-11-30T17:39:07.490Z,0
2022-11-30T17:42:07.440Z,0
2022-11-30T17:45:07.361Z,0
2022-11-30T17:48:07.414Z,0
2022-11-30T17:51:07.860Z,0
2022-11-30T17:54:07.462Z,0
2022-11-30T17:57:07.344Z,0
2022-11-30T18:00:07.404Z,0
2022-11-30T18:03:07.748Z,0
2022-11-30T18:06:07.357Z,0
2022-11-30T18:09:07.297Z,0
2022-11-30T18:12:07.439Z,0
2022-11-30T18:15:07.356Z,0
2022-11-30T18:18:07.426Z,0
2022-11-30T18:21:07.328Z,0
2022-11-30T18:24:07.384Z,0
2022-11-30T18:27:07.468Z,0
2022-11-30T18:30:14.385Z,0
2022-11-30T18:33:07.357Z,0
2022-11-30T18:36:07.867Z,0
2022-11-30T18:39:07.357Z,0
2022-11-30T18:42:07.381Z,0
2022-11-30T18:45:07.389Z,0
2022-11-30T18:48:07.439Z,0
2022-11-30T18:51:07.903Z,0
2022-11-30T18:54:07.444Z,0
2022-11-30T18:57:07.452Z,0
2022-11-30T19:00:07.309Z,0
2022-11-30T19:03:07.819Z,0
2022-11-30T19:06:07.330Z,0
2022-11-30T19:09:07.379Z,0
2022-11-30T19:12:07.461Z,0
2022-11-30T19:15:07.448Z,0
2022-11-30T19:18:07.311Z,0
2022-11-30T19:21:07.376Z,0
2022-11-30T19:24:07.349Z,0
2022-11-30T19:27:07.420Z,0
2022-11-30T19:30:07.386Z,0
2022-11-30T19:33:07.367Z,0
2022-11-30T19:36:07.471Z,0
2022-11-30T19:39:07.418Z,0
2022-11-30T19:42:07.387Z,0
2022-11-30T19:45:07.424Z,0
2022-11-30T19:48:07.372Z,0
2022-11-30T19:51:07.376Z,0
2022-11-30T19:54:07.367Z,0
2022-11-30T19:57:07.492Z,0
2022-11-30T20:00:07.389Z,0
2022-11-30T20:03:07.861Z,0
2022-11-30T20:06:07.434Z,0
2022-11-30T20:09:07.414Z,0
2022-11-30T20:12:07.351Z,0
2022-11-30T20:15:07.450Z,0
2022-11-30T20:18:07.346Z,0
2022-11-30T20:21:07.391Z,0
2022-11-30T20:24:07.436Z,0
2022-11-30T20:27:07.402Z,0
2022-11-30T20:30:07.507Z,0
2022-11-30T20:33:07.343Z,0
2022-11-30T20:36:07.615Z,0
2022-11-30T20:39:07.403Z,0
2022-11-30T20:42:07.395Z,0
2022-11-30T20:45:07.482Z,0
2022-11-30T20:48:07.395Z,0
2022-11-30T20:51:38.437Z,0
2022-11-30T20:54:07.390Z,0
2022-11-30T20:57:07.710Z,0
2022-11-30T21:00:13.686Z,0
2022-11-30T21:03:07.996Z,0
2022-11-30T21:06:07.387Z,0
2022-11-30T21:09:07.443Z,0
2022-11-30T21:12:07.361Z,0
2022-11-30T21:15:07.468Z,0
2022-11-30T21:18:07.322Z,0
2022-11-30T21:21:07.373Z,0
2022-11-30T21:24:07.388Z,0
2022-11-30T21:27:07.384Z,0
2022-11-30T21:30:07.546Z,0
2022-11-30T21:33:07.404Z,0
2022-11-30T21:36:07.319Z,0
2022-11-30T21:39:13.359Z,0
2022-11-30T21:42:07.405Z,0
2022-11-30T21:45:07.774Z,0
2022-11-30T21:48:07.339Z,0
2022-11-30T21:51:07.356Z,0
2022-11-30T21:54:07.329Z,0
2022-11-30T21:57:07.384Z,0
2022-11-30T22:00:07.420Z,0
2022-11-30T22:03:07.831Z,0
2022-11-30T22:06:07.352Z,0
2022-11-30T22:09:08.139Z,0
2022-11-30T22:12:07.353Z,0
2022-11-30T22:15:07.455Z,0
2022-11-30T22:18:07.400Z,0
2022-11-30T22:21:07.375Z,0
2022-11-30T22:24:07.318Z,0
2022-11-30T22:27:07.353Z,0
2022-11-30T22:30:07.424Z,0
2022-11-30T22:33:07.464Z,0
2022-11-30T22:36:07.393Z,0
2022-11-30T22:39:07.445Z,0
2022-11-30T22:42:07.431Z,0
2022-11-30T22:45:07.386Z,0
2022-11-30T22:48:07.378Z,0
2022-11-30T22:51:07.424Z,0
2022-11-30T22:54:07.351Z,0
2022-11-30T22:57:07.322Z,0
2022-11-30T23:00:08.303Z,0
2022-11-30T23:03:07.738Z,0
2022-11-30T23:06:07.346Z,0
2022-11-30T23:09:07.503Z,0
2022-11-30T23:12:07.375Z,0
2022-11-30T23:15:07.382Z,0
2022-11-30T23:18:07.479Z,0
2022-11-30T23:21:07.421Z,0
2022-11-30T23:24:07.398Z,0
2022-11-30T23:27:07.309Z,0
2022-11-30T23:30:07.647Z,0
2022-11-30T23:33:07.341Z,0
2022-11-30T23:36:07.425Z,0
2022-11-30T23:39:07.290Z,0
2022-11-30T23:42:07.371Z,0
2022-11-30T23:45:07.417Z,0
2022-11-30T23:48:07.388Z,0
2022-11-30T23:51:07.335Z,0
2022-11-30T23:54:07.470Z,0
2022-11-30T23:57:07.347Z,0
